CheckWX is a tool to help pilots better visualize weather data.  It is not intended as a substitute for an official pre-flight weather briefing.

03:00:56 UTC

WSSS METAR
Singapore Changi International Airport
Singapore, Singapore
Current

31 mins ago

WSSS 230230Z 05005KT 340V090 7000 FEW020 BKN300 31/25 Q1012 NOSIG
Observed
Mar-23 @ 02:30 UTC
Wind
  • 050° at 5 KTS
Visibility
7,001 meters
Flight Rules
MVFR
Cloud Levels
  • Few at 2,000' AGL
  • Broken at 30,000' AGL
Temperature
31°C / 88°F
Dewpoint
25°C / 77°F
Humidity
70%
Altimeter
29.88" Hg
Pressure
1011.92 hPa
Previous

1 hour ago

WSSS 230200Z 03004KT 330V080 7000 SCT020 BKN300 29/24 Q1012 NOSIG
Observed
Mar-23 @ 02:00 UTC
Wind
  • 030° at 4 KTS
Visibility
7,001 meters
Flight Rules
MVFR
Cloud Levels
  • Scattered at 2,000' AGL
  • Broken at 30,000' AGL
Temperature
29°C / 84°F
Dewpoint
24°C / 75°F
Humidity
74%
Altimeter
29.88" Hg
Pressure
1011.92 hPa
Previous

2 hours ago

WSSS 230130Z 07005KT 030V090 5000 HZ FEW020 BKN350 29/25 Q1012 BECMG TL0200 7000 NSW
Observed
Mar-23 @ 01:30 UTC
Wind
  • 070° at 5 KTS
Visibility
5,005 meters
Flight Rules
MVFR
Conditions
Haze
Cloud Levels
  • Few at 2,000' AGL
  • Broken at 35,000' AGL
Temperature
29°C / 84°F
Dewpoint
25°C / 77°F
Humidity
79%
Altimeter
29.88" Hg
Pressure
1011.92 hPa